createdAt,value
2023-04-13T00:02:46.147Z,97024.25
2023-04-13T00:05:52.311Z,97022.38
2023-04-13T00:08:54.208Z,97023.18
2023-04-13T00:11:57.603Z,97019.95
2023-04-13T00:14:59.285Z,97021.87
2023-04-13T00:18:01.129Z,97018.64
2023-04-13T00:21:02.940Z,97017.11
2023-04-13T00:24:04.978Z,97016.42
2023-04-13T00:27:08.110Z,97015.60
2023-04-13T00:30:12.148Z,97014.34
2023-04-13T00:33:13.943Z,97013.90
2023-04-13T00:36:16.080Z,97011.06
2023-04-13T00:39:22.415Z,97001.81
2023-04-13T00:42:24.823Z,97007.13
2023-04-13T00:45:27.639Z,97007.16
2023-04-13T00:48:29.638Z,97011.46
2023-04-13T00:51:32.489Z,97013.15
2023-04-13T00:54:35.109Z,97005.48
2023-04-13T00:57:40.024Z,97005.76
2023-04-13T01:00:42.590Z,97006.34
2023-04-13T01:03:44.293Z,97003.81
2023-04-13T01:07:12.402Z,97005.27
2023-04-13T01:10:21.202Z,97002.89
2023-04-13T01:13:29.727Z,97009.74
2023-04-13T01:16:50.544Z,97011.85
2023-04-13T01:19:59.460Z,97011.10
2023-04-13T01:23:30.645Z,97012.46
2023-04-13T01:26:49.572Z,97014.38
2023-04-13T01:29:51.604Z,97021.23
2023-04-13T01:32:55.108Z,97021.73
2023-04-13T01:36:02.394Z,97021.75
2023-04-13T01:39:05.076Z,97020.41
2023-04-13T01:42:07.782Z,97015.12
2023-04-13T01:45:19.465Z,97016.04
2023-04-13T01:48:33.671Z,97023.67
2023-04-13T01:51:45.387Z,97019.06
2023-04-13T01:54:51.240Z,97021.83
2023-04-13T01:57:56.265Z,97022.16
2023-04-13T02:00:58.150Z,97018.76
2023-04-13T02:04:02.220Z,97017.77
2023-04-13T02:07:06.010Z,97023.90
2023-04-13T02:10:11.408Z,97024.41
2023-04-13T02:13:13.138Z,97021.41
2023-04-13T02:16:15.179Z,97022.72
2023-04-13T02:19:16.920Z,97012.21
2023-04-13T02:22:18.578Z,97010.54
2023-04-13T02:25:23.278Z,97002.32
2023-04-13T02:28:27.118Z,97007.86
2023-04-13T02:31:31.178Z,97001.05
2023-04-13T02:34:33.424Z,97002.20
2023-04-13T02:37:37.436Z,96998.42
2023-04-13T02:40:39.279Z,96994.28
2023-04-13T02:43:41.426Z,96990.13
2023-04-13T02:46:43.471Z,96985.80
2023-04-13T02:49:49.087Z,96985.70
2023-04-13T02:53:01.707Z,96985.07
2023-04-13T02:56:05.051Z,96993.02
2023-04-13T02:59:06.882Z,96990.14
2023-04-13T03:02:09.288Z,96990.61
2023-04-13T03:05:12.370Z,96991.94
2023-04-13T03:08:14.260Z,96991.38
2023-04-13T03:11:25.685Z,96994.16
2023-04-13T03:14:41.619Z,96991.80
2023-04-13T03:17:44.939Z,96990.94
2023-04-13T03:20:49.888Z,96988.45
2023-04-13T03:23:52.541Z,96990.29
2023-04-13T03:26:57.379Z,96989.35
2023-04-13T03:30:04.910Z,96995.10
2023-04-13T03:33:12.096Z,96997.77
2023-04-13T03:36:14.569Z,96999.16
2023-04-13T03:39:16.516Z,96995.29
2023-04-13T03:42:18.306Z,96996.70
2023-04-13T03:45:25.998Z,97000.05
2023-04-13T03:48:28.623Z,96993.63
2023-04-13T03:51:31.148Z,96997.27
2023-04-13T03:54:34.634Z,97000.15
2023-04-13T03:57:36.570Z,96999.04
2023-04-13T04:00:40.690Z,96999.58
2023-04-13T04:03:47.090Z,96999.25
2023-04-13T04:06:48.919Z,96999.33
2023-04-13T04:09:51.397Z,96995.86
2023-04-13T04:12:53.679Z,96991.94
2023-04-13T04:15:56.385Z,96999.20
2023-04-13T04:18:58.210Z,96999.95
2023-04-13T04:22:03.599Z,97002.92
2023-04-13T04:25:08.233Z,97002.58
2023-04-13T04:28:17.352Z,97004.10
2023-04-13T04:31:21.003Z,97004.05
2023-04-13T04:34:25.820Z,97003.09
2023-04-13T04:37:27.517Z,97006.91
2023-04-13T04:40:35.396Z,97004.91
2023-04-13T04:43:38.544Z,97006.44
2023-04-13T04:46:40.976Z,97010.65
2023-04-13T04:49:45.364Z,97010.06
2023-04-13T04:52:47.143Z,97009.01
2023-04-13T04:55:52.762Z,97009.76
2023-04-13T04:59:04.508Z,97004.27
2023-04-13T05:02:12.539Z,97009.46
2023-04-13T05:05:14.335Z,97008.39
2023-04-13T05:08:16.130Z,97009.10
2023-04-13T05:11:20.376Z,97013.04
2023-04-13T05:14:22.316Z,97019.11
2023-04-13T05:17:25.239Z,97020.39
2023-04-13T05:20:27.981Z,97016.80
2023-04-13T05:23:34.688Z,97020.59
2023-04-13T05:26:42.634Z,97021.92
2023-04-13T05:29:47.472Z,97021.44
2023-04-13T05:32:51.157Z,97019.12
2023-04-13T05:35:52.933Z,97024.89
2023-04-13T05:38:58.499Z,97027.43
2023-04-13T05:42:01.240Z,97029.02
2023-04-13T05:45:09.019Z,97027.88
2023-04-13T05:48:12.569Z,97025.37
2023-04-13T05:51:17.533Z,97028.33
2023-04-13T05:54:20.498Z,97030.38
2023-04-13T05:57:23.576Z,97029.84
2023-04-13T06:00:27.344Z,97030.81
2023-04-13T06:03:34.187Z,97034.05
2023-04-13T06:06:35.983Z,97025.80
2023-04-13T06:09:37.807Z,97022.44
2023-04-13T06:12:41.728Z,97018.62
2023-04-13T06:15:43.454Z,97020.64
2023-04-13T06:18:45.308Z,97018.45
2023-04-13T06:21:47.009Z,97018.96
2023-04-13T06:24:51.141Z,97022.66
2023-04-13T06:27:53.798Z,97022.39
2023-04-13T06:30:56.457Z,97028.52
2023-04-13T06:33:58.332Z,97031.13
2023-04-13T06:37:04.543Z,97031.48
2023-04-13T06:40:14.321Z,97036.35
2023-04-13T06:43:29.191Z,97034.52
2023-04-13T06:46:57.464Z,97032.41
2023-04-13T06:50:05.927Z,97036.33
2023-04-13T06:53:07.880Z,97034.84
2023-04-13T06:56:09.969Z,97033.11
2023-04-13T06:59:12.231Z,97036.70
2023-04-13T07:02:14.109Z,97037.55
2023-04-13T07:05:16.611Z,97042.36
2023-04-13T07:08:19.486Z,97039.26
2023-04-13T07:11:24.112Z,97036.45
2023-04-13T07:14:25.953Z,97031.16
2023-04-13T07:17:28.096Z,97034.16
2023-04-13T07:20:30.084Z,97036.48
2023-04-13T07:23:33.425Z,97038.55
2023-04-13T07:26:39.231Z,97038.95
2023-04-13T07:29:41.227Z,97041.93
2023-04-13T07:32:46.355Z,97038.27
2023-04-13T07:35:49.695Z,97035.27
2023-04-13T07:38:51.900Z,97038.77
2023-04-13T07:41:54.272Z,97035.82
2023-04-13T07:45:01.874Z,97042.75
2023-04-13T07:48:05.319Z,97041.26
2023-04-13T07:51:16.953Z,97031.37
2023-04-13T07:54:19.048Z,97034.17
2023-04-13T07:57:22.038Z,97030.79
2023-04-13T08:00:29.444Z,97026.60
2023-04-13T08:03:33.098Z,97022.20
2023-04-13T08:06:36.467Z,97026.11
2023-04-13T08:09:40.175Z,97019.94
2023-04-13T08:12:41.956Z,97021.57
2023-04-13T08:15:45.227Z,97021.27
2023-04-13T08:18:47.521Z,97022.98
2023-04-13T08:21:50.645Z,97021.64
2023-04-13T08:24:52.771Z,97021.64
2023-04-13T08:27:55.712Z,97024.27
2023-04-13T08:30:58.139Z,97025.09
2023-04-13T08:34:00.194Z,97028.81
2023-04-13T08:37:02.183Z,97026.78
2023-04-13T08:40:07.182Z,97033.00
2023-04-13T08:43:09.182Z,97028.67
2023-04-13T08:46:18.875Z,97031.40
2023-04-13T08:49:22.807Z,97037.11
2023-04-13T08:52:48.545Z,97037.45
2023-04-13T08:55:54.100Z,97040.57
2023-04-13T08:59:08.573Z,97042.98
2023-04-13T09:02:11.309Z,97038.05
2023-04-13T09:05:23.261Z,97037.02
2023-04-13T09:08:36.686Z,97038.10
2023-04-13T09:11:41.593Z,97040.11
2023-04-13T09:14:43.450Z,97032.30
2023-04-13T09:17:45.677Z,97029.89
2023-04-13T09:20:57.299Z,97037.04
2023-04-13T09:23:59.178Z,97039.54
2023-04-13T09:27:02.068Z,97039.73
2023-04-13T09:30:04.984Z,97042.45
2023-04-13T09:33:09.781Z,97045.13
2023-04-13T09:36:16.377Z,97045.83
2023-04-13T09:39:26.998Z,97047.86
2023-04-13T09:42:28.783Z,97048.95
2023-04-13T09:45:35.861Z,97056.35
2023-04-13T09:48:37.859Z,97053.58
2023-04-13T09:51:41.395Z,97052.90
2023-04-13T09:54:43.344Z,97052.41
2023-04-13T09:57:45.239Z,97048.55
2023-04-13T10:00:47.081Z,97045.03
2023-04-13T10:03:49.566Z,97042.32
2023-04-13T10:06:51.902Z,97044.85
2023-04-13T10:09:53.842Z,97037.21
2023-04-13T10:13:04.506Z,97035.98
2023-04-13T10:16:24.087Z,97037.45
2023-04-13T10:19:59.161Z,97033.77
2023-04-13T10:23:05.953Z,97028.34
2023-04-13T10:26:09.005Z,97026.78
2023-04-13T10:29:13.879Z,97020.77
2023-04-13T10:32:26.916Z,97024.83
2023-04-13T10:46:10.584Z,97021.50
2023-04-13T10:49:12.813Z,97023.25
2023-04-13T10:52:15.241Z,97020.87
2023-04-13T10:55:19.235Z,97015.58
2023-04-13T10:58:22.415Z,97014.65
2023-04-13T11:01:24.948Z,97013.14
2023-04-13T11:04:26.843Z,97014.08
2023-04-13T11:07:29.177Z,97013.03
2023-04-13T11:10:31.811Z,97014.11
2023-04-13T11:13:33.627Z,97017.95
2023-04-13T11:16:45.464Z,97016.18
2023-04-13T11:19:54.971Z,97022.06
2023-04-13T11:22:57.191Z,97024.95
2023-04-13T11:26:02.414Z,97022.04
2023-04-13T11:29:04.537Z,97021.73
2023-04-13T11:32:06.642Z,97026.52
2023-04-13T11:35:10.144Z,97024.38
2023-04-13T11:38:19.747Z,97028.00
2023-04-13T11:41:21.609Z,97030.95
2023-04-13T11:44:24.336Z,97031.73
2023-04-13T11:47:26.662Z,97035.74
2023-04-13T11:50:29.096Z,97033.39
2023-04-13T11:53:32.963Z,97034.13
2023-04-13T11:56:35.158Z,97031.29
2023-04-13T11:59:38.052Z,97035.77
2023-04-13T12:02:59.568Z,97037.33
2023-04-13T12:06:04.104Z,97035.74
2023-04-13T12:09:14.975Z,97033.55
2023-04-13T12:15:43.534Z,97022.23
2023-04-13T12:18:52.489Z,97019.48
2023-04-13T12:21:57.192Z,97024.17
2023-04-13T12:24:59.728Z,97021.47
2023-04-13T12:28:02.680Z,97015.86
2023-04-13T12:31:12.093Z,97014.16
2023-04-13T12:34:13.933Z,97019.96
2023-04-13T12:37:15.770Z,97024.43
2023-04-13T12:40:17.871Z,97032.04
2023-04-13T12:43:19.671Z,97034.36
2023-04-13T12:46:21.579Z,97031.39
2023-04-13T12:49:23.466Z,97035.30
2023-04-13T12:52:27.942Z,97035.49
2023-04-13T12:55:30.087Z,97034.30
2023-04-13T12:58:31.946Z,97037.09
2023-04-13T13:01:36.769Z,97035.35
2023-04-13T13:04:38.625Z,97033.52
2023-04-13T13:07:40.407Z,97036.89
2023-04-13T13:10:42.200Z,97031.00
2023-04-13T13:13:43.966Z,97033.40
2023-04-13T13:16:46.130Z,97037.04
2023-04-13T13:19:47.852Z,97040.85
2023-04-13T13:22:49.668Z,97043.42
2023-04-13T13:26:04.387Z,97044.05
2023-04-13T13:29:13.279Z,97046.70
2023-04-13T13:32:16.282Z,97054.75
2023-04-13T13:35:19.192Z,97052.80
2023-04-13T13:38:21.024Z,97058.10
2023-04-13T13:41:24.794Z,97058.09
2023-04-13T13:44:26.632Z,97063.17
2023-04-13T13:47:28.675Z,97068.07
2023-04-13T13:50:30.666Z,97066.17
2023-04-13T13:53:34.189Z,97072.35
2023-04-13T13:56:36.020Z,97080.16
2023-04-13T13:59:38.028Z,97084.64
2023-04-13T14:02:40.262Z,97082.04
2023-04-13T14:05:45.030Z,97086.55
2023-04-13T14:08:52.035Z,97090.77
2023-04-13T14:11:54.163Z,97094.60
2023-04-13T14:14:55.975Z,97098.17
2023-04-13T14:21:56.210Z,97105.29
2023-04-13T14:24:58.372Z,97109.09
2023-04-13T14:28:00.520Z,97112.29
2023-04-13T14:31:02.926Z,97111.80
2023-04-13T14:34:04.725Z,97114.79
2023-04-13T14:37:06.995Z,97119.98
2023-04-13T14:40:13.852Z,97120.20
2023-04-13T14:43:16.129Z,97116.35
2023-04-13T14:46:18.141Z,97118.61
2023-04-13T14:49:19.982Z,97120.64
2023-04-13T14:52:22.129Z,97126.39
2023-04-13T14:55:24.032Z,97127.85
2023-04-13T14:58:25.986Z,97138.02
2023-04-13T15:01:27.875Z,97144.10
2023-04-13T15:04:30.177Z,97149.72
2023-04-13T15:07:32.114Z,97156.39
2023-04-13T15:10:34.525Z,97154.41
2023-04-13T15:13:37.564Z,97156.06
2023-04-13T15:16:39.373Z,97162.64
2023-04-13T15:19:41.436Z,97165.79
2023-04-13T15:22:43.434Z,97170.48
2023-04-13T15:25:45.989Z,97172.23
2023-04-13T15:28:47.964Z,97176.58
2023-04-13T15:31:51.121Z,97181.70
2023-04-13T15:34:55.745Z,97185.95
2023-04-13T15:38:01.462Z,97180.46
2023-04-13T15:41:03.151Z,97184.64
2023-04-13T15:44:05.032Z,97189.59
2023-04-13T15:47:06.865Z,97189.45
2023-04-13T15:50:09.039Z,97191.94
2023-04-13T15:53:10.710Z,97193.02
2023-04-13T15:56:12.530Z,97195.85
2023-04-13T15:59:14.280Z,97195.73
2023-04-13T16:02:16.152Z,97198.65
2023-04-13T16:05:19.053Z,97202.45
2023-04-13T16:08:21.033Z,97200.56
2023-04-13T16:11:22.667Z,97202.70
2023-04-13T16:14:24.705Z,97204.28
2023-04-13T16:17:30.416Z,97206.20
2023-04-13T16:20:33.046Z,97214.70
2023-04-13T16:23:35.032Z,97220.11
2023-04-13T16:26:37.293Z,97221.28
2023-04-13T16:29:41.008Z,97222.98
2023-04-13T16:32:44.417Z,97228.84
2023-04-13T16:35:46.151Z,97229.80
2023-04-13T16:38:47.859Z,97233.17
2023-04-13T16:41:50.785Z,97233.71
2023-04-13T16:44:52.797Z,97233.09
2023-04-13T16:47:55.139Z,97231.68
2023-04-13T16:50:57.777Z,97233.90
2023-04-13T16:53:59.625Z,97235.13
2023-04-13T16:57:01.460Z,97240.65
2023-04-13T17:00:08.881Z,97245.98
2023-04-13T17:03:10.878Z,97248.34
2023-04-13T17:06:12.815Z,97251.02
2023-04-13T17:09:14.486Z,97249.88
2023-04-13T17:12:16.214Z,97257.06
2023-04-13T17:15:19.039Z,97256.95
2023-04-13T17:18:20.933Z,97262.70
2023-04-13T17:21:22.884Z,97267.75
2023-04-13T17:24:24.797Z,97266.41
2023-04-13T17:27:26.538Z,97273.71
2023-04-13T17:30:31.680Z,97274.98
2023-04-13T17:33:33.384Z,97275.17
2023-04-13T17:36:35.025Z,97280.19
2023-04-13T17:39:36.953Z,97282.65
2023-04-13T17:42:38.724Z,97283.19
2023-04-13T17:45:41.028Z,97284.98
2023-04-13T17:48:42.802Z,97290.37
2023-04-13T17:51:46.917Z,97296.23
2023-04-13T17:54:48.669Z,97300.27
2023-04-13T17:57:50.394Z,97305.19
2023-04-13T18:00:52.164Z,97310.01
2023-04-13T18:03:54.095Z,97310.11
2023-04-13T18:06:56.163Z,97312.34
2023-04-13T18:09:57.992Z,97314.27
2023-04-13T18:13:00.383Z,97314.77
2023-04-13T18:16:02.680Z,97317.63
2023-04-13T18:19:04.528Z,97322.28
2023-04-13T18:22:06.301Z,97318.62
2023-04-13T18:25:09.031Z,97320.23
2023-04-13T18:28:11.035Z,97319.95
2023-04-13T18:31:12.834Z,97323.95
2023-04-13T18:34:14.613Z,97326.40
2023-04-13T18:37:16.350Z,97319.88
2023-04-13T18:40:18.058Z,97322.34
2023-04-13T18:43:19.890Z,97326.89
2023-04-13T18:46:21.702Z,97324.23
2023-04-13T18:49:23.505Z,97324.09
2023-04-13T18:52:25.570Z,97323.49
2023-04-13T18:55:28.042Z,97329.85
2023-04-13T18:58:29.802Z,97331.52
2023-04-13T19:01:31.832Z,97328.21
2023-04-13T19:04:34.538Z,97327.46
2023-04-13T19:07:36.439Z,97327.30
2023-04-13T19:10:38.472Z,97325.48
2023-04-13T19:13:40.158Z,97324.64
2023-04-13T19:16:44.877Z,97323.44
2023-04-13T19:19:48.026Z,97324.16
2023-04-13T19:22:52.712Z,97322.27
2023-04-13T19:25:54.517Z,97325.23
2023-04-13T19:28:56.248Z,97325.42
2023-04-13T19:31:58.460Z,97330.92
2023-04-13T19:35:00.231Z,97329.30
2023-04-13T19:38:01.971Z,97327.53
2023-04-13T19:41:03.684Z,97327.61
2023-04-13T19:44:07.220Z,97329.34
2023-04-13T19:47:08.923Z,97327.23
2023-04-13T19:50:13.700Z,97325.12
2023-04-13T19:53:15.524Z,97329.30
2023-04-13T19:56:17.764Z,97333.31
2023-04-13T19:59:19.480Z,97329.70
2023-04-13T20:02:21.533Z,97333.24
2023-04-13T20:05:24.189Z,97328.54
2023-04-13T20:08:26.040Z,97331.02
2023-04-13T20:11:27.705Z,97332.30
2023-04-13T20:14:29.627Z,97327.77
2023-04-13T20:17:31.439Z,97329.98
2023-04-13T20:20:34.870Z,97328.13
2023-04-13T20:23:37.015Z,97335.30
2023-04-13T20:26:39.152Z,97326.12
2023-04-13T20:29:41.100Z,97329.27
2023-04-13T20:32:42.853Z,97329.27
2023-04-13T20:35:44.705Z,97325.92
2023-04-13T20:38:47.621Z,97332.23
2023-04-13T20:41:54.158Z,97322.73
2023-04-13T20:44:58.897Z,97328.57
2023-04-13T20:51:23.171Z,97324.64
2023-04-13T20:54:24.812Z,97325.98
2023-04-13T20:57:26.933Z,97322.98
2023-04-13T21:00:29.054Z,97318.25
2023-04-13T21:03:31.262Z,97317.34
2023-04-13T21:06:35.420Z,97316.27
2023-04-13T21:09:37.596Z,97316.69
2023-04-13T21:12:39.312Z,97314.44
2023-04-13T21:15:44.747Z,97313.70
2023-04-13T21:18:47.217Z,97312.93
2023-04-13T21:21:48.923Z,97313.56
2023-04-13T21:24:50.661Z,97312.24
2023-04-13T21:27:52.376Z,97307.94
2023-04-13T21:30:54.202Z,97307.77
2023-04-13T21:33:55.950Z,97299.98
2023-04-13T21:36:59.849Z,97299.77
2023-04-13T21:40:01.845Z,97292.86
2023-04-13T21:43:03.724Z,97288.09
2023-04-13T21:46:05.470Z,97290.05
2023-04-13T21:49:07.229Z,97290.67
2023-04-13T21:52:09.409Z,97287.05
2023-04-13T21:55:17.022Z,97287.20
2023-04-13T21:58:19.047Z,97287.61
2023-04-13T22:01:20.844Z,97287.31
2023-04-13T22:04:22.856Z,97287.13
2023-04-13T22:07:38.999Z,97290.04
2023-04-13T22:10:43.766Z,97290.22
2023-04-13T22:13:45.550Z,97288.99
2023-04-13T22:16:48.739Z,97289.02
2023-04-13T22:19:50.624Z,97284.23
2023-04-13T22:22:52.310Z,97280.38
2023-04-13T22:26:00.838Z,97279.24
2023-04-13T22:29:02.810Z,97281.30
2023-04-13T22:32:05.032Z,97280.13
2023-04-13T22:35:07.114Z,97278.50
2023-04-13T22:38:08.863Z,97275.13
2023-04-13T22:41:10.642Z,97274.05
2023-04-13T22:44:12.445Z,97268.40
2023-04-13T22:47:14.196Z,97267.23
2023-04-13T22:50:16.102Z,97268.70
2023-04-13T22:53:17.780Z,97267.89
2023-04-13T22:56:19.467Z,97268.53
2023-04-13T22:59:21.234Z,97266.20
2023-04-13T23:02:23.046Z,97265.17
2023-04-13T23:05:24.834Z,97259.44
2023-04-13T23:08:28.635Z,97261.48
2023-04-13T23:11:30.467Z,97253.58
2023-04-13T23:14:32.313Z,97253.12
2023-04-13T23:17:34.250Z,97253.12
2023-04-13T23:20:36.069Z,97249.05
2023-04-13T23:23:38.729Z,97243.58
2023-04-13T23:26:40.458Z,97242.95
2023-04-13T23:29:44.910Z,97247.27
2023-04-13T23:32:46.699Z,97239.67
2023-04-13T23:35:51.856Z,97236.91
2023-04-13T23:38:53.725Z,97236.20
2023-04-13T23:41:55.508Z,97232.48
2023-04-13T23:44:57.210Z,97230.54
2023-04-13T23:47:58.947Z,97231.81
2023-04-13T23:51:00.793Z,97226.85
2023-04-13T23:54:02.563Z,97226.06
2023-04-13T23:57:04.258Z,97216.90
